createdAt,value
2023-03-29T00:00:15.860Z,4.32
2023-03-29T00:02:48.602Z,4.75
2023-03-29T00:05:18.654Z,4.68
2023-03-29T00:07:46.963Z,5.10
2023-03-29T00:10:16.490Z,4.32
2023-03-29T00:12:44.549Z,5.32
2023-03-29T00:15:13.277Z,4.65
2023-03-29T00:17:41.631Z,4.22
2023-03-29T00:20:11.251Z,5.07
2023-03-29T00:22:42.099Z,3.65
2023-03-29T00:25:11.485Z,4.50
2023-03-29T00:27:42.563Z,4.05
2023-03-29T00:30:14.141Z,3.95
2023-03-29T00:32:43.703Z,4.53
2023-03-29T00:35:12.376Z,4.45
2023-03-29T00:37:43.781Z,4.50
2023-03-29T00:40:12.880Z,4.40
2023-03-29T00:42:45.522Z,3.90
2023-03-29T00:45:22.509Z,4.68
2023-03-29T00:47:52.957Z,3.78
2023-03-29T00:50:26.027Z,3.72
2023-03-29T00:52:58.581Z,5.65
2023-03-29T00:55:29.889Z,4.68
2023-03-29T00:58:00.879Z,4.20
2023-03-29T01:00:32.964Z,3.83
2023-03-29T01:03:03.547Z,4.07
2023-03-29T01:05:37.696Z,3.40
2023-03-29T01:08:07.819Z,4.25
2023-03-29T01:10:38.910Z,4.65
2023-03-29T01:13:11.876Z,3.92
2023-03-29T01:15:42.181Z,4.43
2023-03-29T01:18:11.344Z,3.95
2023-03-29T01:20:46.276Z,3.97
2023-03-29T01:23:27.914Z,4.13
2023-03-29T01:26:02.997Z,4.15
2023-03-29T01:28:35.459Z,3.00
2023-03-29T01:31:08.403Z,4.25
2023-03-29T01:33:40.223Z,4.32
2023-03-29T01:36:13.960Z,3.20
2023-03-29T01:38:47.669Z,3.35
2023-03-29T01:41:15.828Z,3.42
2023-03-29T01:43:50.291Z,3.63
2023-03-29T01:46:23.581Z,4.03
2023-03-29T01:48:55.476Z,3.45
2023-03-29T01:51:26.569Z,4.55
2023-03-29T01:53:58.873Z,3.30
2023-03-29T01:56:29.429Z,3.47
2023-03-29T01:59:02.251Z,3.08
2023-03-29T02:01:33.152Z,3.55
2023-03-29T02:04:06.960Z,4.05
2023-03-29T02:06:36.282Z,3.80
2023-03-29T02:09:05.503Z,3.65
2023-03-29T02:11:34.887Z,3.20
2023-03-29T02:14:06.870Z,3.65
2023-03-29T02:16:39.623Z,3.58
2023-03-29T02:19:09.177Z,3.72
2023-03-29T02:21:41.413Z,4.20
2023-03-29T02:26:38.846Z,3.75
2023-03-29T02:29:08.201Z,3.95
2023-03-29T02:31:39.956Z,3.75
2023-03-29T02:34:13.005Z,3.72
2023-03-29T02:36:43.200Z,3.65
2023-03-29T02:39:17.466Z,3.60
2023-03-29T02:41:48.413Z,3.95
2023-03-29T02:44:21.555Z,4.32
2023-03-29T02:46:51.845Z,3.50
2023-03-29T02:49:21.944Z,4.05
2023-03-29T02:51:52.792Z,4.00
2023-03-29T02:54:23.539Z,3.67
2023-03-29T02:56:58.661Z,3.90
2023-03-29T02:59:29.815Z,3.88
2023-03-29T03:01:58.596Z,4.05
2023-03-29T03:04:28.412Z,3.45
2023-03-29T03:06:58.423Z,4.47
2023-03-29T03:09:27.903Z,4.55
2023-03-29T03:11:56.147Z,3.92
2023-03-29T03:14:24.777Z,3.67
2023-03-29T03:16:55.395Z,3.95
2023-03-29T03:19:24.119Z,3.53
2023-03-29T03:21:54.781Z,3.67
2023-03-29T03:24:25.789Z,3.90
2023-03-29T03:26:54.518Z,3.90
2023-03-29T03:29:23.570Z,4.15
2023-03-29T03:31:53.828Z,3.75
2023-03-29T03:34:23.835Z,3.80
2023-03-29T03:36:54.604Z,4.43
2023-03-29T03:39:23.012Z,4.60
2023-03-29T03:41:51.443Z,3.40
2023-03-29T03:44:20.102Z,3.55
2023-03-29T03:46:49.002Z,3.95
2023-03-29T03:49:17.304Z,4.85
2023-03-29T03:51:47.095Z,4.45
2023-03-29T03:54:15.384Z,4.07
2023-03-29T03:56:44.591Z,3.80
2023-03-29T03:59:15.621Z,4.32
2023-03-29T04:01:44.439Z,4.10
2023-03-29T04:04:12.828Z,4.85
2023-03-29T04:06:43.748Z,4.60
2023-03-29T04:09:13.925Z,4.90
2023-03-29T04:11:41.939Z,5.05
2023-03-29T04:14:10.316Z,6.40
2023-03-29T04:16:38.370Z,4.57
2023-03-29T04:19:08.946Z,5.07
2023-03-29T04:21:37.272Z,4.68
2023-03-29T04:24:07.368Z,5.00
2023-03-29T04:26:37.508Z,3.88
2023-03-29T04:29:05.784Z,5.07
2023-03-29T04:31:34.891Z,4.32
2023-03-29T04:34:03.038Z,4.43
2023-03-29T04:36:31.215Z,4.40
2023-03-29T04:39:01.445Z,4.63
2023-03-29T04:41:30.490Z,4.30
2023-03-29T04:44:00.329Z,4.75
2023-03-29T04:46:29.142Z,4.70
2023-03-29T04:48:58.630Z,4.32
2023-03-29T04:51:27.562Z,4.50
2023-03-29T04:53:55.640Z,4.47
2023-03-29T04:56:24.065Z,5.68
2023-03-29T04:58:52.387Z,5.80
2023-03-29T05:01:22.505Z,4.45
2023-03-29T05:03:50.796Z,6.03
2023-03-29T05:06:19.424Z,7.82
2023-03-29T05:08:47.511Z,5.70
2023-03-29T05:11:16.558Z,5.90
2023-03-29T05:13:45.173Z,6.03
2023-03-29T05:16:13.225Z,6.53
2023-03-29T05:18:42.912Z,5.82
2023-03-29T05:21:11.465Z,6.20
2023-03-29T05:23:39.879Z,7.55
2023-03-29T05:26:09.979Z,6.28
2023-03-29T05:28:39.504Z,5.35
2023-03-29T05:31:08.063Z,6.05
2023-03-29T05:33:37.775Z,5.18
2023-03-29T05:36:09.648Z,4.22
2023-03-29T05:38:38.347Z,4.78
2023-03-29T05:41:07.527Z,4.47
2023-03-29T05:43:36.539Z,4.55
2023-03-29T05:46:06.304Z,3.88
2023-03-29T05:48:38.175Z,5.63
2023-03-29T05:51:08.360Z,4.05
2023-03-29T05:53:38.393Z,5.22
2023-03-29T05:56:08.934Z,4.32
2023-03-29T05:58:38.182Z,4.30
2023-03-29T06:01:12.655Z,4.90
2023-03-29T06:03:40.913Z,4.90
2023-03-29T06:06:10.879Z,4.00
2023-03-29T06:08:38.952Z,4.10
2023-03-29T06:11:09.370Z,4.10
2023-03-29T06:13:38.978Z,4.15
2023-03-29T06:16:14.531Z,5.10
2023-03-29T06:18:42.838Z,4.35
2023-03-29T06:21:14.419Z,4.68
2023-03-29T06:23:43.009Z,4.18
2023-03-29T06:26:14.712Z,3.92
2023-03-29T06:28:43.585Z,4.50
2023-03-29T06:31:13.551Z,3.30
2023-03-29T06:33:43.432Z,4.43
2023-03-29T06:36:16.977Z,4.47
2023-03-29T06:38:45.999Z,4.13
2023-03-29T06:41:16.120Z,3.63
2023-03-29T06:43:44.219Z,4.55
2023-03-29T06:46:13.373Z,4.25
2023-03-29T06:48:42.080Z,4.25
2023-03-29T06:51:13.053Z,3.90
2023-03-29T06:53:43.129Z,3.58
2023-03-29T06:56:11.552Z,4.80
2023-03-29T06:58:41.536Z,4.85
2023-03-29T07:01:11.877Z,5.10
2023-03-29T07:03:41.388Z,4.28
2023-03-29T07:06:11.651Z,3.83
2023-03-29T07:08:44.154Z,4.68
2023-03-29T07:11:13.948Z,4.55
2023-03-29T07:13:43.067Z,3.65
2023-03-29T07:16:13.683Z,4.07
2023-03-29T07:18:44.093Z,4.13
2023-03-29T07:21:13.428Z,3.90
2023-03-29T07:23:43.665Z,3.95
2023-03-29T07:26:12.823Z,4.05
2023-03-29T07:28:46.366Z,3.75
2023-03-29T07:31:18.017Z,3.60
2023-03-29T07:33:48.714Z,4.00
2023-03-29T07:36:16.817Z,3.10
2023-03-29T07:38:48.431Z,3.83
2023-03-29T07:41:16.871Z,4.30
2023-03-29T07:43:45.044Z,3.08
2023-03-29T07:46:14.423Z,3.65
2023-03-29T07:48:44.623Z,3.30
2023-03-29T07:51:16.804Z,3.40
2023-03-29T07:53:54.104Z,3.50
2023-03-29T07:56:22.446Z,3.72
2023-03-29T07:58:51.387Z,3.25
2023-03-29T08:01:20.647Z,3.67
2023-03-29T08:03:49.351Z,3.38
2023-03-29T08:06:18.446Z,3.30
2023-03-29T08:08:47.851Z,3.88
2023-03-29T08:11:18.749Z,3.90
2023-03-29T08:13:53.188Z,3.78
2023-03-29T08:16:23.582Z,3.38
2023-03-29T08:18:54.548Z,3.38
2023-03-29T08:21:22.569Z,3.95
2023-03-29T08:23:52.146Z,3.25
2023-03-29T08:26:20.285Z,3.40
2023-03-29T08:28:48.629Z,3.00
2023-03-29T08:31:17.084Z,2.88
2023-03-29T08:33:49.058Z,3.78
2023-03-29T08:36:18.993Z,3.53
2023-03-29T08:38:50.791Z,3.05
2023-03-29T08:41:31.520Z,3.03
2023-03-29T08:44:08.469Z,3.55
2023-03-29T08:46:40.739Z,3.63
2023-03-29T08:51:45.720Z,3.53
2023-03-29T08:54:16.776Z,3.75
2023-03-29T08:56:48.030Z,3.42
2023-03-29T08:59:20.799Z,3.42
2023-03-29T09:01:50.144Z,3.60
2023-03-29T09:04:24.051Z,3.78
2023-03-29T09:06:55.070Z,3.38
2023-03-29T09:09:24.445Z,3.95
2023-03-29T09:12:06.864Z,3.58
2023-03-29T09:14:47.393Z,3.85
2023-03-29T09:17:27.081Z,4.68
2023-03-29T09:20:00.195Z,3.78
2023-03-29T09:22:35.260Z,3.92
2023-03-29T09:25:10.836Z,3.67
2023-03-29T09:27:45.798Z,3.40
2023-03-29T09:30:21.666Z,3.40
2023-03-29T09:32:56.305Z,3.85
2023-03-29T09:35:26.152Z,3.28
2023-03-29T09:37:55.589Z,3.42
2023-03-29T09:40:28.849Z,3.95
2023-03-29T09:42:58.719Z,3.10
2023-03-29T09:45:27.070Z,3.88
2023-03-29T09:47:58.163Z,3.75
2023-03-29T09:50:32.212Z,3.17
2023-03-29T09:53:00.871Z,2.70
2023-03-29T09:55:32.385Z,2.63
2023-03-29T09:58:14.095Z,3.90
2023-03-29T10:00:44.976Z,2.80
2023-03-29T10:03:19.339Z,3.40
2023-03-29T10:05:48.158Z,3.22
2023-03-29T10:08:22.938Z,3.83
2023-03-29T10:10:52.894Z,3.60
2023-03-29T10:13:28.332Z,3.58
2023-03-29T10:16:03.940Z,2.95
2023-03-29T10:18:35.944Z,2.90
2023-03-29T10:21:06.442Z,3.30
2023-03-29T10:23:37.452Z,3.50
2023-03-29T10:26:08.592Z,3.20
2023-03-29T10:28:40.254Z,2.90
2023-03-29T10:31:10.208Z,2.95
2023-03-29T10:33:39.094Z,3.17
2023-03-29T10:36:09.954Z,3.80
2023-03-29T10:38:39.511Z,3.30
2023-03-29T10:41:10.957Z,2.65
2023-03-29T10:43:44.776Z,2.70
2023-03-29T10:46:14.574Z,2.53
2023-03-29T10:48:47.840Z,2.92
2023-03-29T10:51:17.245Z,3.13
2023-03-29T10:53:45.867Z,3.30
2023-03-29T10:56:32.985Z,3.45
2023-03-29T10:59:12.329Z,2.63
2023-03-29T11:01:48.023Z,2.70
2023-03-29T11:04:23.142Z,3.45
2023-03-29T11:07:02.506Z,3.15
2023-03-29T11:09:46.579Z,3.20
2023-03-29T11:12:19.465Z,3.65
2023-03-29T11:14:57.824Z,3.65
2023-03-29T11:17:34.941Z,3.13
2023-03-29T11:20:14.894Z,3.40
2023-03-29T11:22:51.473Z,3.90
2023-03-29T11:25:33.509Z,4.20
2023-03-29T11:28:07.829Z,3.67
2023-03-29T11:30:43.890Z,3.53
2023-03-29T11:33:21.360Z,3.50
2023-03-29T11:35:56.332Z,3.92
2023-03-29T11:38:30.866Z,3.40
2023-03-29T11:41:04.941Z,3.50
2023-03-29T11:43:36.138Z,3.38
2023-03-29T11:46:11.599Z,4.18
2023-03-29T11:48:45.158Z,3.38
2023-03-29T11:51:17.783Z,3.53
2023-03-29T11:53:53.966Z,3.35
2023-03-29T11:56:29.405Z,3.47
2023-03-29T11:59:05.227Z,3.80
2023-03-29T12:01:40.904Z,3.28
2023-03-29T12:04:17.724Z,3.50
2023-03-29T12:06:55.258Z,5.57
2023-03-29T12:09:33.480Z,3.13
2023-03-29T12:12:08.242Z,3.20
2023-03-29T12:14:47.067Z,2.67
2023-03-29T12:17:20.348Z,2.50
2023-03-29T12:19:52.113Z,3.13
2023-03-29T12:22:23.131Z,2.90
2023-03-29T12:24:55.484Z,2.78
2023-03-29T12:27:29.533Z,2.90
2023-03-29T12:30:10.493Z,2.97
2023-03-29T12:32:48.612Z,3.22
2023-03-29T12:35:26.900Z,3.22
2023-03-29T12:38:02.748Z,3.20
2023-03-29T12:40:41.825Z,3.13
2023-03-29T12:43:17.408Z,3.40
2023-03-29T12:45:48.371Z,3.55
2023-03-29T12:48:24.622Z,2.92
2023-03-29T12:51:00.931Z,2.63
2023-03-29T12:53:33.197Z,2.72
2023-03-29T12:56:13.951Z,2.60
2023-03-29T12:58:44.456Z,3.47
2023-03-29T13:01:25.463Z,3.13
2023-03-29T13:03:59.195Z,2.90
2023-03-29T13:06:31.411Z,2.88
2023-03-29T13:09:02.985Z,2.85
2023-03-29T13:11:41.317Z,3.70
2023-03-29T13:14:14.799Z,3.22
2023-03-29T13:16:47.394Z,3.55
2023-03-29T13:19:27.649Z,3.63
2023-03-29T13:22:06.896Z,3.30
2023-03-29T13:24:57.297Z,3.60
2023-03-29T13:27:32.463Z,3.20
2023-03-29T13:30:24.317Z,3.33
2023-03-29T13:32:59.827Z,3.77
2023-03-29T13:35:37.805Z,3.60
2023-03-29T13:38:18.620Z,3.33
2023-03-29T13:41:01.710Z,3.70
2023-03-29T13:43:40.929Z,3.05
2023-03-29T13:46:22.436Z,3.20
2023-03-29T13:49:07.908Z,3.50
2023-03-29T13:51:41.658Z,3.63
2023-03-29T13:54:18.205Z,3.47
2023-03-29T13:56:58.945Z,3.72
2023-03-29T13:59:33.168Z,3.95
2023-03-29T14:02:04.294Z,3.90
2023-03-29T14:04:37.812Z,4.80
2023-03-29T14:07:12.587Z,4.32
2023-03-29T14:09:45.134Z,4.40
2023-03-29T14:12:15.712Z,3.80
2023-03-29T14:14:58.110Z,4.20
2023-03-29T14:17:28.973Z,4.07
2023-03-29T14:19:58.965Z,3.95
2023-03-29T14:22:34.257Z,3.90
2023-03-29T14:25:06.618Z,4.55
2023-03-29T14:30:21.999Z,4.68
2023-03-29T14:32:52.353Z,5.03
2023-03-29T14:35:24.059Z,4.45
2023-03-29T14:37:57.168Z,4.55
2023-03-29T14:40:29.853Z,4.65
2023-03-29T14:42:57.984Z,4.85
2023-03-29T14:45:26.426Z,5.07
2023-03-29T14:47:54.773Z,5.13
2023-03-29T14:50:26.269Z,4.72
2023-03-29T14:52:57.914Z,5.43
2023-03-29T14:55:26.182Z,4.55
2023-03-29T14:57:56.191Z,4.88
2023-03-29T15:00:28.551Z,4.47
2023-03-29T15:02:59.662Z,5.03
2023-03-29T15:05:38.362Z,4.70
2023-03-29T15:08:12.300Z,5.13
2023-03-29T15:10:45.042Z,4.65
2023-03-29T15:13:18.730Z,4.72
2023-03-29T15:15:48.454Z,4.50
2023-03-29T15:18:19.935Z,5.03
2023-03-29T15:20:51.448Z,4.33
2023-03-29T15:25:57.165Z,4.60
2023-03-29T15:28:28.257Z,5.50
2023-03-29T15:33:36.103Z,5.20
2023-03-29T15:36:07.183Z,4.40
2023-03-29T15:38:43.894Z,4.97
2023-03-29T15:41:14.069Z,5.28
2023-03-29T15:43:42.966Z,4.80
2023-03-29T15:46:14.048Z,5.20
2023-03-29T15:48:42.430Z,4.70
2023-03-29T15:51:11.715Z,4.88
2023-03-29T15:53:41.271Z,7.63
2023-03-29T15:56:11.602Z,4.90
2023-03-29T15:58:40.037Z,4.90
2023-03-29T16:01:13.120Z,4.68
2023-03-29T16:03:41.640Z,4.43
2023-03-29T16:06:12.243Z,4.85
2023-03-29T16:08:41.907Z,4.45
2023-03-29T16:11:10.234Z,3.83
2023-03-29T16:13:39.307Z,4.20
2023-03-29T16:16:09.910Z,4.07
2023-03-29T16:18:38.182Z,4.22
2023-03-29T16:21:09.299Z,4.32
2023-03-29T16:23:41.720Z,3.92
2023-03-29T16:26:11.895Z,4.60
2023-03-29T16:28:40.012Z,4.90
2023-03-29T16:31:10.240Z,3.92
2023-03-29T16:33:40.493Z,4.68
2023-03-29T16:36:09.553Z,4.78
2023-03-29T16:38:38.571Z,4.85
2023-03-29T16:41:08.478Z,4.28
2023-03-29T16:43:38.568Z,4.28
2023-03-29T16:46:08.985Z,5.00
2023-03-29T16:48:37.530Z,3.70
2023-03-29T16:51:06.982Z,4.18
2023-03-29T16:53:35.899Z,4.70
2023-03-29T16:56:05.648Z,4.88
2023-03-29T16:58:36.213Z,3.92
2023-03-29T17:01:12.050Z,4.63
2023-03-29T17:03:41.040Z,4.75
2023-03-29T17:06:09.993Z,4.32
2023-03-29T17:08:39.359Z,4.00
2023-03-29T17:11:08.412Z,4.95
2023-03-29T17:13:38.795Z,4.60
2023-03-29T17:16:07.953Z,5.30
2023-03-29T17:18:36.039Z,4.90
2023-03-29T17:21:05.622Z,4.43
2023-03-29T17:23:34.196Z,4.63
2023-03-29T17:26:02.665Z,5.25
2023-03-29T17:28:36.245Z,4.88
2023-03-29T17:31:08.172Z,5.28
2023-03-29T17:33:36.409Z,5.03
2023-03-29T17:36:05.491Z,5.00
2023-03-29T17:38:34.208Z,4.50
2023-03-29T17:41:03.037Z,5.20
2023-03-29T17:43:31.915Z,4.93
2023-03-29T17:46:01.795Z,4.85
2023-03-29T17:48:32.806Z,4.80
2023-03-29T17:51:00.976Z,4.93
2023-03-29T17:53:28.998Z,5.47
2023-03-29T17:55:56.968Z,5.45
2023-03-29T17:58:25.815Z,4.90
2023-03-29T18:00:53.768Z,5.03
2023-03-29T18:03:22.148Z,5.53
2023-03-29T18:05:51.548Z,4.97
2023-03-29T18:08:20.418Z,5.13
2023-03-29T18:10:48.509Z,5.68
2023-03-29T18:13:16.703Z,5.50
2023-03-29T18:15:47.671Z,6.68
2023-03-29T18:18:16.828Z,5.88
2023-03-29T18:20:45.765Z,5.50
2023-03-29T18:23:15.724Z,5.35
2023-03-29T18:25:43.775Z,6.63
2023-03-29T18:28:11.759Z,5.50
2023-03-29T18:30:40.351Z,6.00
2023-03-29T18:33:08.470Z,6.25
2023-03-29T18:35:36.709Z,7.03
2023-03-29T18:38:04.710Z,5.53
2023-03-29T18:40:34.680Z,6.28
2023-03-29T18:43:02.809Z,5.75
2023-03-29T18:45:30.748Z,6.13
2023-03-29T18:47:58.938Z,5.32
2023-03-29T18:50:27.108Z,6.10
2023-03-29T18:52:55.115Z,4.78
2023-03-29T18:55:23.458Z,6.05
2023-03-29T18:57:53.343Z,5.30
2023-03-29T19:00:21.702Z,6.45
2023-03-29T19:02:50.125Z,5.57
2023-03-29T19:05:18.569Z,6.00
2023-03-29T19:07:46.854Z,6.30
2023-03-29T19:10:14.867Z,5.65
2023-03-29T19:12:43.049Z,6.10
2023-03-29T19:15:13.992Z,5.82
2023-03-29T19:17:42.301Z,6.28
2023-03-29T19:20:12.114Z,5.97
2023-03-29T19:22:41.445Z,5.78
2023-03-29T19:25:10.501Z,6.10
2023-03-29T19:27:38.654Z,5.70
2023-03-29T19:30:08.139Z,7.20
2023-03-29T19:32:37.610Z,6.38
2023-03-29T19:35:09.641Z,6.30
2023-03-29T19:37:37.814Z,6.80
2023-03-29T19:40:08.364Z,6.60
2023-03-29T19:42:36.920Z,6.32
2023-03-29T19:45:06.364Z,6.88
2023-03-29T19:47:36.874Z,6.03
2023-03-29T19:50:07.564Z,7.03
2023-03-29T19:52:36.052Z,5.82
2023-03-29T19:55:06.491Z,8.18
2023-03-29T19:57:34.588Z,7.05
2023-03-29T20:00:05.141Z,6.88
2023-03-29T20:02:33.110Z,6.90
2023-03-29T20:05:01.933Z,6.38
2023-03-29T20:07:31.267Z,6.78
2023-03-29T20:10:00.890Z,6.80
2023-03-29T20:12:29.443Z,7.15
2023-03-29T20:14:57.837Z,6.45
2023-03-29T20:17:26.273Z,6.70
2023-03-29T20:19:55.430Z,6.45
2023-03-29T20:22:26.439Z,6.57
2023-03-29T20:24:56.135Z,6.22
2023-03-29T20:27:24.492Z,6.75
2023-03-29T20:29:52.612Z,6.35
2023-03-29T20:32:21.699Z,6.47
2023-03-29T20:34:52.829Z,7.00
2023-03-29T20:37:23.023Z,6.95
2023-03-29T20:39:51.514Z,5.82
2023-03-29T20:42:28.684Z,6.82
2023-03-29T20:44:56.896Z,5.68
2023-03-29T20:47:27.470Z,6.70
2023-03-29T20:49:55.674Z,5.97
2023-03-29T20:52:25.379Z,5.97
2023-03-29T20:54:53.450Z,6.63
2023-03-29T20:57:22.979Z,6.18
2023-03-29T20:59:51.065Z,6.65
2023-03-29T21:02:21.325Z,5.85
2023-03-29T21:04:54.155Z,5.55
2023-03-29T21:07:22.420Z,5.57
2023-03-29T21:09:50.615Z,5.65
2023-03-29T21:12:20.382Z,6.07
2023-03-29T21:14:50.657Z,5.57
2023-03-29T21:17:18.642Z,5.82
2023-03-29T21:19:46.802Z,5.43
2023-03-29T21:22:15.179Z,6.07
2023-03-29T21:24:43.353Z,5.60
2023-03-29T21:27:11.623Z,6.15
2023-03-29T21:29:39.622Z,6.38
2023-03-29T21:32:09.086Z,5.35
2023-03-29T21:34:37.055Z,5.85
2023-03-29T21:37:05.520Z,4.90
2023-03-29T21:39:33.568Z,5.43
2023-03-29T21:42:02.021Z,5.53
2023-03-29T21:44:32.507Z,5.72
2023-03-29T21:47:02.031Z,5.40
2023-03-29T21:49:32.645Z,5.32
2023-03-29T21:52:00.590Z,5.90
2023-03-29T21:54:29.780Z,5.35
2023-03-29T21:56:57.831Z,5.13
2023-03-29T21:59:27.752Z,5.30
2023-03-29T22:01:55.878Z,5.18
2023-03-29T22:04:36.032Z,5.32
2023-03-29T22:07:08.287Z,4.93
2023-03-29T22:09:36.665Z,5.13
2023-03-29T22:12:05.917Z,5.57
2023-03-29T22:14:36.003Z,5.35
2023-03-29T22:17:05.962Z,5.18
2023-03-29T22:19:38.840Z,6.32
2023-03-29T22:22:14.006Z,5.25
2023-03-29T22:24:42.596Z,5.65
2023-03-29T22:27:11.069Z,5.35
2023-03-29T22:29:39.545Z,6.20
2023-03-29T22:32:08.756Z,4.45
2023-03-29T22:34:36.828Z,5.05
2023-03-29T22:37:05.056Z,5.70
2023-03-29T22:39:36.913Z,5.07
2023-03-29T22:42:07.111Z,5.72
2023-03-29T22:44:36.300Z,5.13
2023-03-29T22:47:04.826Z,5.00
2023-03-29T22:49:32.850Z,6.00
2023-03-29T22:52:02.815Z,5.75
2023-03-29T22:54:31.389Z,6.05
2023-03-29T22:57:00.916Z,5.72
2023-03-29T22:59:29.030Z,6.93
2023-03-29T23:01:58.778Z,6.57
2023-03-29T23:04:26.845Z,6.28
2023-03-29T23:06:54.939Z,6.00
2023-03-29T23:09:22.965Z,6.38
2023-03-29T23:11:51.048Z,6.10
2023-03-29T23:14:20.514Z,6.05
2023-03-29T23:16:50.429Z,6.18
2023-03-29T23:19:18.606Z,6.22
2023-03-29T23:21:46.742Z,6.00
2023-03-29T23:24:18.993Z,6.32
2023-03-29T23:26:49.235Z,6.30
2023-03-29T23:29:17.695Z,6.25
2023-03-29T23:31:47.741Z,5.90
2023-03-29T23:34:15.888Z,6.25
2023-03-29T23:36:43.925Z,7.22
2023-03-29T23:39:12.033Z,6.20
2023-03-29T23:41:40.489Z,6.47
2023-03-29T23:44:08.648Z,6.70
2023-03-29T23:46:36.705Z,6.18
2023-03-29T23:49:06.560Z,6.10
2023-03-29T23:51:35.106Z,6.30
2023-03-29T23:54:03.451Z,5.63
2023-03-29T23:56:31.613Z,6.50
2023-03-29T23:58:59.776Z,6.43
